Pagrindinis puslapis
METAR-TAF:

METAR-TAF

Oro uostai :

Karalienės Alijos tarptautinis oro uostas

Amanas-Queen Alia, Jordanija

platuma: 31-40N, ilguma: 035-58E, Aukštis: 721 m

Dabartinis oras

Ataskaita buvo paskelbta 2 valandos ir 1 minutes, ne 22:00 UTC
Vėjas 5 kt iš Pietų/Pietvakarių
Temperatūra 18°C
Drėgmė 73%
Slėgis 1014 hPa
Matomumas: 6000 m
Išsisklaidę debesys ne aukštis 3500 ft

METAR: OJAI 232200Z 20005KT 6000 SCT035 18/13 Q1014 NOSIG

Laikas: 03:01 (00:01 UTC)

Prognozė

Ataskaita buvo paskelbta 7 valandos ir 59 minutes, ne 16:02 UTC
Prognozė galioja nuo 23 metu 18 UTC su 24 metu 24 UTC
Vėjas 12 kt iš Vakarų/Šiaurės Vakarų
Matomumas: 5000 m
Išsisklaidę debesys ne aukštis 3500 ft
migla
Tikimybė 40% :
Laikinai
nuo 24 metu 00 UTC su 24 metu 09 UTC
Vėjas 20 kt iš Vakarų
Matomumas: 4000 m
Išsisklaidę debesys ne aukštis 2000 ft
Išsisklaidę debesys ne aukštis 2500 ft
lietus

TAF: OJAI 231602Z 2318/2424 29012KT 5000 HZ SCT035 PROB40 TEMPO 2400/2409 27020KT 4000 -RA SCT020 SCT025

Orai ataskaitas ir orų prognozės (METAR, TAF).

turimą stotys yra geltonos ir raudonos taškus žemėlapyje.

Perkelti pele per norėdami pamatyti stoties vardą.

Tada spustelėkite, norėdami matyti oro stebėjimo ir prognozės.

Norėdami pakeisti žemėlapį: spustelėkite ant žalios mygtukų su juodo kryžiaus žemyn,; žalią mygtuką su brūkšneliu, jei norite nutolinti; arba žalių rodyklių gretimoms žemėlapius.


METAR-TAF: